Dickinson, ND

4:45 AM MDT on July 21, 2017 (GMT -0600)
Southview | | Change Station
Active Advisory: Fire Weather Watch

Elev 2434 ft 46.86 °N, 102.78 °W | Updated 8 seconds ago

Clear
Clear
68.4 °F
Feels Like 68.4 °F
N
5.0
Wind Variable Wind from SSW

Today
High -- | Low -- °F
--% Chance of Precip.
Yesterday
High -- | Low -- °F
Precip. -- in
Pressure 29.72 in
Visibility 10.0 miles
Clouds Clear
Dew Point 60 °F
Humidity 75%
Rainfall 0.00 in
Snow Depth Not available.
5:18 AM 8:36 PM
Waning Crescent, 6% visible
METAR KDIK 210956Z AUTO 21014KT 10SM CLR 21/17 A2979 RMK AO2 SLP063 T02060167
Pressure 29.72 in
Visibility 10.0 miles
Clouds Clear
Dew Point 60 °F
Humidity 75%
Rainfall 0.00 in
Snow Depth Not available.
5:18 AM 8:36 PM
Waning Crescent, 6% visible
METAR KDIK 210956Z AUTO 21014KT 10SM CLR 21/17 A2979 RMK AO2 SLP063 T02060167

Get Your Daily Forecast Email!

Thanks for signing up!

Be on the lookout for a verification email in your inbox.

You'll start receiving severe weather alerts in your inbox..

×

10-Day Weather Forecast

Almanac

Astronomy

Jul. 21, 2017 Rise Set
Actual Time
Civil Twilight
Nautical Twilight
Astronomical Twilight
Moon
Length of Visible Light
Length of Day
Tomorrow will be .
, % of the Moon is Illuminated

Today's Extremes

State Highs State Lows

Community

WunderPhotos

Category 6

Welcome to Category 6. This is the collective home for Weather Underground's featured writeups by Dr. Jeff Masters (right), Bob Henson (left), Chris Burt, and other regular contributors.

Nearby

Air Quality

  Air Quality AQ Index Pollutant
Not available.

Snow Depth

Station Depth Elevation

Earthquake Activity

City Distance Mag. Time & Date
Minimum magnitude displayed is 2.5.

Coastal Water Temperatures

Place Temperature

Stations

Nearby Weather Stations

Station Location Temp. Windchill Dew Point Humidity Wind Precip. Elev Updated Type
                   

Watches & Warnings

Fire Weather Watch
Issued: 2:44 AM MDT Jul. 21, 2017 – National Weather Service

... Fire Weather Watch in effect from Saturday afternoon through
Saturday evening for strong winds... low relative humidity and dry
fuels for fire weather zones 020, 031, 032, 033, 034, 035, 040,
041, 042, 043, 044, 045, and 046...

The National Weather Service in Bismarck has issued a Fire
Weather Watch, which is in effect from Saturday afternoon through
Saturday evening.

* Affected area... fire weather zones 020, 031, 032, 033, 034,
035, 040, 041, 042, 043, 044, 045, and 046.

* Wind... northwest winds sustained at 20 to 25 mph with higher
gusts.

* Humidity... minimum relative humidity between 15 and 25 percent.

* Temperatures... highs in the 80s are expected.

* Impacts... any fires that develop could spread rapidly.

Precautionary/preparedness actions...

A Fire Weather Watch means that critical fire weather conditions
are forecast to occur. Listen for later forecasts and possible
red flag warnings.



PA